createdAt,value
2023-01-28T00:00:24.584Z,97863.31
2023-01-28T00:02:54.117Z,97864.38
2023-01-28T00:05:24.979Z,97866.84
2023-01-28T00:07:54.607Z,97860.80
2023-01-28T00:10:24.251Z,97857.25
2023-01-28T00:12:56.830Z,97853.95
2023-01-28T00:15:26.470Z,97860.75
2023-01-28T00:17:56.680Z,97853.09
2023-01-28T00:20:26.137Z,97848.19
2023-01-28T00:22:55.627Z,97856.11
2023-01-28T00:25:25.138Z,97844.61
2023-01-28T00:28:15.120Z,97840.20
2023-01-28T00:30:44.866Z,97848.12
2023-01-28T00:33:14.212Z,97848.62
2023-01-28T00:35:43.587Z,97851.59
2023-01-28T00:38:13.141Z,97855.41
2023-01-28T00:40:42.632Z,97854.84
2023-01-28T00:43:12.433Z,97854.27
2023-01-28T00:45:41.915Z,97849.08
2023-01-28T00:48:14.953Z,97867.34
2023-01-28T00:50:44.712Z,97864.58
2023-01-28T00:53:14.253Z,97868.37
2023-01-28T00:55:44.060Z,97859.91
2023-01-28T00:58:13.520Z,97855.78
2023-01-28T01:00:42.771Z,97839.95
2023-01-28T01:03:12.091Z,97845.65
2023-01-28T01:05:42.857Z,97844.55
2023-01-28T01:08:12.687Z,97841.25
2023-01-28T01:10:42.274Z,97844.52
2023-01-28T01:13:11.563Z,97843.95
2023-01-28T01:18:15.956Z,97846.64
2023-01-28T01:20:46.563Z,97854.25
2023-01-28T01:23:16.382Z,97848.31
2023-01-28T01:25:45.965Z,97849.44
2023-01-28T01:28:16.597Z,97849.44
2023-01-28T01:31:06.426Z,97847.59
2023-01-28T01:33:35.783Z,97842.16
2023-01-28T01:36:05.133Z,97845.67
2023-01-28T01:38:34.645Z,97855.78
2023-01-28T01:41:04.324Z,97856.56
2023-01-28T01:44:10.845Z,97849.20
2023-01-28T01:46:47.839Z,97859.27
2023-01-28T01:49:40.577Z,97850.77
2023-01-28T01:52:11.053Z,97855.41
2023-01-28T01:54:40.749Z,97857.32
2023-01-28T01:57:30.684Z,97863.57
2023-01-28T02:00:01.629Z,97861.35
2023-01-28T02:02:31.252Z,97861.35
2023-01-28T02:05:00.617Z,97860.23
2023-01-28T02:07:30.362Z,97855.05
2023-01-28T02:09:59.829Z,97861.56
2023-01-28T02:12:30.779Z,97859.64
2023-01-28T02:15:01.483Z,97859.07
2023-01-28T02:17:31.143Z,97863.16
2023-01-28T02:20:05.285Z,97861.49
2023-01-28T02:22:39.260Z,97859.34
2023-01-28T02:25:13.066Z,97860.73
2023-01-28T02:28:00.870Z,97856.95
2023-01-28T02:30:31.907Z,97854.25
2023-01-28T02:33:02.336Z,97860.88
2023-01-28T02:35:33.161Z,97854.90
2023-01-28T02:38:10.382Z,97854.93
2023-01-28T02:40:42.445Z,97850.05
2023-01-28T02:43:13.601Z,97850.63
2023-01-28T02:46:02.043Z,97847.92
2023-01-28T02:48:31.288Z,97840.61
2023-01-28T02:51:05.250Z,97853.47
2023-01-28T02:53:58.034Z,97841.52
2023-01-28T02:56:30.267Z,97837.20
2023-01-28T02:59:08.433Z,97833.95
2023-01-28T03:01:39.562Z,97835.89
2023-01-28T03:04:19.217Z,97830.16
2023-01-28T03:06:49.882Z,97829.83
2023-01-28T03:09:25.605Z,97835.23
2023-01-28T03:12:14.057Z,97833.59
2023-01-28T03:15:00.976Z,97833.33
2023-01-28T03:17:49.369Z,97834.94
2023-01-28T03:20:36.823Z,97834.36
2023-01-28T03:23:24.552Z,97836.24
2023-01-28T03:26:12.249Z,97830.52
2023-01-28T03:28:59.657Z,97827.20
2023-01-28T03:31:47.905Z,97834.27
2023-01-28T03:34:34.969Z,97835.91
2023-01-28T03:37:04.595Z,97838.06
2023-01-28T03:39:34.019Z,97837.48
2023-01-28T03:42:04.739Z,97835.03
2023-01-28T03:44:51.339Z,97838.31
2023-01-28T03:47:24.712Z,97838.58
2023-01-28T03:49:55.443Z,97836.70
2023-01-28T03:52:29.344Z,97827.75
2023-01-28T03:54:58.835Z,97821.77
2023-01-28T03:57:28.652Z,97830.84
2023-01-28T03:59:58.270Z,97824.04
2023-01-28T04:02:28.266Z,97824.40
2023-01-28T04:04:59.067Z,97817.87
2023-01-28T04:07:37.652Z,97813.47
2023-01-28T04:10:06.535Z,97818.36
2023-01-28T04:12:36.181Z,97819.16
2023-01-28T04:15:08.429Z,97819.95
2023-01-28T04:17:38.498Z,97818.00
2023-01-28T04:20:08.476Z,97815.55
2023-01-28T04:22:38.067Z,97812.80
2023-01-28T04:25:08.194Z,97821.23
2023-01-28T04:27:37.594Z,97820.14
2023-01-28T04:30:07.425Z,97813.55
2023-01-28T04:32:36.939Z,97806.97
2023-01-28T04:35:06.661Z,97810.80
2023-01-28T04:37:36.396Z,97803.16
2023-01-28T04:40:30.732Z,97808.06
2023-01-28T04:43:00.337Z,97808.86
2023-01-28T04:45:29.671Z,97800.94
2023-01-28T04:47:59.448Z,97803.91
2023-01-28T04:50:28.868Z,97808.55
2023-01-28T04:52:58.841Z,97800.88
2023-01-28T04:55:28.510Z,97792.36
2023-01-28T04:57:58.523Z,97794.30
2023-01-28T05:00:28.021Z,97785.27
2023-01-28T05:02:57.894Z,97781.72
2023-01-28T05:05:27.456Z,97780.59
2023-01-28T05:07:57.165Z,97777.59
2023-01-28T05:10:26.692Z,97779.48
2023-01-28T05:12:56.486Z,97774.81
2023-01-28T05:15:25.928Z,97773.17
2023-01-28T05:17:57.396Z,97773.41
2023-01-28T05:20:27.073Z,97774.75
2023-01-28T05:22:56.651Z,97768.20
2023-01-28T05:25:26.336Z,97773.36
2023-01-28T05:27:55.708Z,97768.17
2023-01-28T05:30:25.138Z,97761.59
2023-01-28T05:32:58.091Z,97752.56
2023-01-28T05:35:27.599Z,97755.53
2023-01-28T05:37:57.137Z,97753.89
2023-01-28T05:40:26.748Z,97753.31
2023-01-28T05:42:56.142Z,97757.14
2023-01-28T05:45:25.803Z,97759.05
2023-01-28T05:47:55.562Z,97743.19
2023-01-28T05:50:25.578Z,97750.80
2023-01-28T05:52:57.777Z,97743.38
2023-01-28T05:55:47.506Z,97744.19
2023-01-28T05:58:17.163Z,97744.47
2023-01-28T06:00:47.779Z,97746.07
2023-01-28T06:03:17.609Z,97744.13
2023-01-28T06:05:47.134Z,97744.37
2023-01-28T06:08:16.819Z,97742.73
2023-01-28T06:10:46.229Z,97738.30
2023-01-28T06:13:15.713Z,97736.13
2023-01-28T06:15:45.359Z,97735.00
2023-01-28T06:18:14.998Z,97732.55
2023-01-28T06:20:44.570Z,97734.70
2023-01-28T06:23:14.389Z,97730.88
2023-01-28T06:25:44.133Z,97721.30
2023-01-28T06:28:13.952Z,97728.63
2023-01-28T06:30:43.707Z,97729.97
2023-01-28T06:33:13.366Z,97727.75
2023-01-28T06:35:42.758Z,97731.56
2023-01-28T06:38:12.311Z,97724.72
2023-01-28T06:40:41.991Z,97723.08
2023-01-28T06:43:11.492Z,97721.68
2023-01-28T06:45:41.180Z,97719.20
2023-01-28T06:48:11.779Z,97718.38
2023-01-28T06:50:41.350Z,97713.44
2023-01-28T06:53:10.977Z,97713.13
2023-01-28T06:55:40.348Z,97707.95
2023-01-28T06:58:12.313Z,97709.82
2023-01-28T07:00:41.688Z,97704.61
2023-01-28T07:03:11.051Z,97702.67
2023-01-28T07:05:40.746Z,97701.03
2023-01-28T07:08:10.183Z,97700.18
2023-01-28T07:10:39.758Z,97699.05
2023-01-28T07:13:09.379Z,97696.59
2023-01-28T07:15:38.994Z,97693.30
2023-01-28T07:18:08.581Z,97702.25
2023-01-28T07:20:37.867Z,97695.17
2023-01-28T07:23:07.741Z,97692.17
2023-01-28T07:25:37.056Z,97692.13
2023-01-28T07:28:06.774Z,97688.52
2023-01-28T07:30:36.439Z,97693.70
2023-01-28T07:33:06.017Z,97691.75
2023-01-28T07:35:37.034Z,97696.11
2023-01-28T07:38:06.298Z,97680.27
2023-01-28T07:40:35.987Z,97688.10
2023-01-28T07:43:05.761Z,97688.64
2023-01-28T07:45:35.593Z,97695.72
2023-01-28T07:48:05.987Z,97691.84
2023-01-28T07:50:36.269Z,97687.17
2023-01-28T07:53:06.372Z,97683.87
2023-01-28T07:55:37.217Z,97680.88
2023-01-28T07:58:08.024Z,97678.11
2023-01-28T08:00:37.893Z,97678.38
2023-01-28T08:03:08.157Z,97678.86
2023-01-28T08:05:42.371Z,97675.86
2023-01-28T08:08:11.995Z,97666.02
2023-01-28T08:10:41.640Z,97669.28
2023-01-28T08:13:12.581Z,97661.07
2023-01-28T08:16:03.660Z,97664.30
2023-01-28T08:18:33.252Z,97657.22
2023-01-28T08:21:02.889Z,97659.91
2023-01-28T08:26:08.143Z,97662.01
2023-01-28T08:28:37.886Z,97654.65
2023-01-28T08:31:07.922Z,97663.36
2023-01-28T08:33:37.690Z,97663.05
2023-01-28T08:36:07.533Z,97662.78
2023-01-28T08:38:37.332Z,97663.28
2023-01-28T08:41:07.145Z,97662.16
2023-01-28T08:43:36.742Z,97659.67
2023-01-28T08:46:08.358Z,97669.46
2023-01-28T08:48:38.982Z,97656.35
2023-01-28T08:51:08.540Z,97664.76
2023-01-28T08:53:38.102Z,97663.94
2023-01-28T08:56:08.063Z,97657.63
2023-01-28T08:58:37.595Z,97660.90
2023-01-28T09:01:07.767Z,97654.05
2023-01-28T09:03:37.305Z,97652.11
2023-01-28T09:06:07.047Z,97656.73
2023-01-28T09:08:36.507Z,97648.80
2023-01-28T09:11:10.411Z,97655.05
2023-01-28T09:13:40.051Z,97654.74
2023-01-28T09:16:10.067Z,97653.34
2023-01-28T09:18:39.815Z,97653.34
2023-01-28T09:21:09.838Z,97652.48
2023-01-28T09:23:42.549Z,97648.36
2023-01-28T09:26:12.015Z,97648.08
2023-01-28T09:28:41.648Z,97642.88
2023-01-28T09:31:14.183Z,97638.75
2023-01-28T09:33:43.803Z,97628.13
2023-01-28T09:36:16.489Z,97631.91
2023-01-28T09:38:46.227Z,97631.31
2023-01-28T09:41:20.515Z,97634.50
2023-01-28T09:43:55.713Z,97637.77
2023-01-28T09:46:25.974Z,97633.64
2023-01-28T09:48:56.069Z,97631.73
2023-01-28T09:51:26.851Z,97640.13
2023-01-28T09:53:56.301Z,97638.48
2023-01-28T09:56:28.757Z,97639.53
2023-01-28T09:58:58.899Z,97633.05
2023-01-28T10:01:38.516Z,97627.06
2023-01-28T10:04:27.554Z,97627.34
2023-01-28T10:07:07.497Z,97626.24
2023-01-28T10:09:42.737Z,97623.21
2023-01-28T10:12:20.024Z,97625.39
2023-01-28T10:14:53.653Z,97618.86
2023-01-28T10:17:27.078Z,97611.75
2023-01-28T10:19:58.195Z,97616.91
2023-01-28T10:22:29.213Z,97607.39
2023-01-28T10:25:06.877Z,97605.98
2023-01-28T10:27:39.607Z,97600.55
2023-01-28T10:30:21.878Z,97594.83
2023-01-28T10:33:05.068Z,97589.08
2023-01-28T10:35:36.026Z,97599.14
2023-01-28T10:38:07.950Z,97586.31
2023-01-28T10:40:37.951Z,97589.03
2023-01-28T10:43:07.512Z,97597.20
2023-01-28T10:45:41.086Z,97600.72
2023-01-28T10:48:18.345Z,97599.36
2023-01-28T10:50:54.812Z,97600.41
2023-01-28T10:53:27.134Z,97603.14
2023-01-28T10:55:57.811Z,97599.55
2023-01-28T10:58:27.966Z,97598.19
2023-01-28T11:00:58.700Z,97591.66
2023-01-28T11:03:31.842Z,97587.27
2023-01-28T11:06:01.303Z,97586.17
2023-01-28T11:08:31.109Z,97584.50
2023-01-28T11:11:02.150Z,97580.97
2023-01-28T11:13:31.948Z,97575.25
2023-01-28T11:16:08.015Z,97581.23
2023-01-28T11:18:45.119Z,97582.01
2023-01-28T11:21:21.576Z,97574.90
2023-01-28T11:23:59.443Z,97575.70
2023-01-28T11:26:35.325Z,97576.48
2023-01-28T11:29:04.737Z,97585.99
2023-01-28T11:31:37.942Z,97582.69
2023-01-28T11:34:08.380Z,97583.77
2023-01-28T11:36:37.917Z,97583.19
2023-01-28T11:39:08.445Z,97574.21
2023-01-28T11:41:38.462Z,97582.31
2023-01-28T11:44:16.007Z,97586.67
2023-01-28T11:46:54.141Z,97595.33
2023-01-28T11:49:34.602Z,97586.89
2023-01-28T11:52:06.026Z,97581.14
2023-01-28T11:54:36.963Z,97576.61
2023-01-28T11:57:25.987Z,97582.36
2023-01-28T11:59:57.398Z,97584.59
2023-01-28T12:02:34.694Z,97590.12
2023-01-28T12:05:05.822Z,97587.81
2023-01-28T12:07:36.459Z,97577.61
2023-01-28T12:10:13.312Z,97584.81
2023-01-28T12:12:47.490Z,97576.78
2023-01-28T12:15:21.186Z,97573.67
2023-01-28T12:18:08.684Z,97573.78
2023-01-28T12:20:58.536Z,97577.45
2023-01-28T12:23:38.658Z,97577.30
2023-01-28T12:26:12.951Z,97583.95
2023-01-28T12:28:45.231Z,97572.11
2023-01-28T12:31:29.123Z,97572.49
2023-01-28T12:34:11.854Z,97572.59
2023-01-28T12:36:42.559Z,97575.94
2023-01-28T12:39:25.741Z,97566.50
2023-01-28T12:42:14.762Z,97559.55
2023-01-28T12:44:48.284Z,97557.19
2023-01-28T12:47:18.991Z,97560.25
2023-01-28T12:49:49.827Z,97572.02
2023-01-28T12:52:24.375Z,97567.72
2023-01-28T12:55:12.053Z,97568.30
2023-01-28T12:57:41.591Z,97575.71
2023-01-28T13:00:28.345Z,97582.31
2023-01-28T13:03:02.464Z,97574.52
2023-01-28T13:05:33.734Z,97578.39
2023-01-28T13:08:07.100Z,97583.34
2023-01-28T13:10:46.013Z,97577.13
2023-01-28T13:13:20.233Z,97581.82
2023-01-28T13:15:49.882Z,97583.23
2023-01-28T13:18:35.668Z,97580.83
2023-01-28T13:23:55.843Z,97577.08
2023-01-28T13:26:46.561Z,97578.19
2023-01-28T13:29:48.442Z,97565.42
2023-01-28T13:32:28.477Z,97566.30
2023-01-28T13:35:02.830Z,97562.77
2023-01-28T13:37:39.160Z,97569.91
2023-01-28T13:40:27.493Z,97572.66
2023-01-28T13:43:00.990Z,97566.70
2023-01-28T13:45:51.007Z,97580.91
2023-01-28T13:48:28.138Z,97581.22
2023-01-28T13:50:57.817Z,97585.05
2023-01-28T13:53:41.284Z,97589.19
2023-01-28T13:56:11.948Z,97594.12
2023-01-28T13:58:43.208Z,97590.86
2023-01-28T14:01:14.275Z,97587.38
2023-01-28T14:04:00.497Z,97596.67
2023-01-28T14:06:32.706Z,97597.53
2023-01-28T14:09:09.859Z,97597.27
2023-01-28T14:11:47.036Z,97603.56
2023-01-28T14:14:29.949Z,97607.98
2023-01-28T14:17:00.279Z,97603.62
2023-01-28T14:19:30.824Z,97609.91
2023-01-28T14:22:00.357Z,97610.75
2023-01-28T14:24:30.130Z,97613.51
2023-01-28T14:27:12.892Z,97621.72
2023-01-28T14:29:55.782Z,97611.08
2023-01-28T14:32:28.080Z,97616.03
2023-01-28T14:34:57.819Z,97629.41
2023-01-28T14:37:29.013Z,97631.63
2023-01-28T14:40:02.597Z,97633.30
2023-01-28T14:42:45.442Z,97623.75
2023-01-28T14:45:16.151Z,97616.38
2023-01-28T14:47:50.103Z,97618.28
2023-01-28T14:50:30.111Z,97625.38
2023-01-28T14:53:04.066Z,97628.36
2023-01-28T14:55:47.387Z,97636.28
2023-01-28T14:58:18.449Z,97633.29
2023-01-28T15:00:49.279Z,97629.17
2023-01-28T15:03:26.877Z,97626.70
2023-01-28T15:05:50.752Z,97621.22
2023-01-28T15:08:23.520Z,97622.56
2023-01-28T15:10:53.929Z,97626.09
2023-01-28T15:13:25.450Z,97616.27
2023-01-28T15:15:56.066Z,97622.53
2023-01-28T15:18:26.969Z,97634.30
2023-01-28T15:20:56.654Z,97637.02
2023-01-28T15:23:38.683Z,97634.53
2023-01-28T15:26:24.652Z,97637.80
2023-01-28T15:28:54.902Z,97638.05
2023-01-28T15:31:29.120Z,97638.87
2023-01-28T15:33:59.212Z,97647.32
2023-01-28T15:36:28.608Z,97648.42
2023-01-28T15:38:58.027Z,97641.84
2023-01-28T15:41:28.833Z,97654.41
2023-01-28T15:43:59.598Z,97653.84
2023-01-28T15:46:28.844Z,97647.81
2023-01-28T15:49:02.773Z,97651.91
2023-01-28T15:51:35.251Z,97648.34
2023-01-28T15:54:06.179Z,97665.83
2023-01-28T15:56:35.983Z,97664.98
2023-01-28T15:59:22.240Z,97667.69
2023-01-28T16:01:51.559Z,97662.52
2023-01-28T16:04:27.798Z,97658.11
2023-01-28T16:06:57.417Z,97658.39
2023-01-28T16:09:30.663Z,97655.91
2023-01-28T16:12:13.658Z,97659.98
2023-01-28T16:14:44.343Z,97655.63
2023-01-28T16:17:13.459Z,97658.05
2023-01-28T16:19:50.247Z,97658.30
2023-01-28T16:22:23.493Z,97642.16
2023-01-28T16:24:54.305Z,97667.02
2023-01-28T16:27:28.067Z,97667.02
2023-01-28T16:29:59.697Z,97659.12
2023-01-28T16:32:39.064Z,97661.37
2023-01-28T16:35:15.940Z,97662.21
2023-01-28T16:37:45.876Z,97651.61
2023-01-28T16:40:20.002Z,97652.44
2023-01-28T16:42:52.694Z,97626.71
2023-01-28T16:45:22.570Z,97645.11
2023-01-28T16:47:51.982Z,97639.41
2023-01-28T16:50:22.744Z,97636.97
2023-01-28T16:52:52.409Z,97626.05
2023-01-28T16:55:22.278Z,97622.23
2023-01-28T16:57:52.125Z,97619.27
2023-01-28T17:00:27.784Z,97617.63
2023-01-28T17:02:57.512Z,97607.50
2023-01-28T17:05:27.919Z,97604.48
2023-01-28T17:07:58.765Z,97592.72
2023-01-28T17:10:28.175Z,97597.64
2023-01-28T17:12:57.451Z,97597.07
2023-01-28T17:15:27.277Z,97593.26
2023-01-28T17:17:57.001Z,97589.14
2023-01-28T17:20:26.483Z,97582.56
2023-01-28T17:22:56.894Z,97574.66
2023-01-28T17:25:26.869Z,97568.63
2023-01-28T17:27:56.768Z,97563.42
2023-01-28T17:30:27.069Z,97556.32
2023-01-28T17:32:57.663Z,97561.78
2023-01-28T17:35:27.620Z,97551.39
2023-01-28T17:37:57.424Z,97534.45
2023-01-28T17:40:27.775Z,97531.16
2023-01-28T17:42:57.440Z,97533.38
2023-01-28T17:45:27.686Z,97518.06
2023-01-28T17:47:57.406Z,97509.05
2023-01-28T17:50:27.667Z,97507.69
2023-01-28T17:52:57.672Z,97498.93
2023-01-28T17:55:30.789Z,97491.84
2023-01-28T17:58:00.469Z,97477.89
2023-01-28T18:00:30.083Z,97467.25
2023-01-28T18:02:59.487Z,97462.34
2023-01-28T18:05:28.945Z,97466.69
2023-01-28T18:07:58.577Z,97461.51
2023-01-28T18:10:27.766Z,97457.12
2023-01-28T18:12:57.851Z,97460.10
2023-01-28T18:15:27.886Z,97440.97
2023-01-28T18:17:57.891Z,97439.31
2023-01-28T18:20:27.074Z,97430.05
2023-01-28T18:22:56.805Z,97422.67
2023-01-28T18:25:26.814Z,97411.73
2023-01-28T18:27:56.536Z,97407.64
2023-01-28T18:30:27.045Z,97400.55
2023-01-28T18:32:56.869Z,97398.62
2023-01-28T18:35:27.006Z,97389.33
2023-01-28T18:37:57.001Z,97376.22
2023-01-28T18:40:27.064Z,97376.22
2023-01-28T18:42:56.963Z,97368.59
2023-01-28T18:45:26.970Z,97359.28
2023-01-28T18:47:57.431Z,97356.30
2023-01-28T18:50:26.981Z,97357.92
2023-01-28T18:52:57.071Z,97346.17
2023-01-28T18:55:27.102Z,97346.17
2023-01-28T18:57:57.602Z,97337.98
2023-01-28T19:00:28.092Z,97329.53
2023-01-28T19:02:57.991Z,97322.16
2023-01-28T19:05:27.777Z,97323.25
2023-01-28T19:07:57.930Z,97318.34
2023-01-28T20:15:11.892Z,97229.41
2023-01-28T20:17:41.379Z,97231.88
2023-01-28T20:20:11.433Z,97244.71
2023-01-28T20:22:40.897Z,97241.17
2023-01-28T20:25:10.852Z,97230.25
2023-01-28T20:27:40.132Z,97232.16
2023-01-28T20:30:10.453Z,97237.07
2023-01-28T20:32:39.779Z,97230.25
2023-01-28T20:35:09.383Z,97228.33
2023-01-28T20:37:39.456Z,97229.69
2023-01-28T20:40:09.443Z,97222.86
2023-01-28T20:42:38.738Z,97226.14
2023-01-28T20:45:08.833Z,97221.50
2023-01-28T20:47:38.244Z,97211.36
2023-01-28T20:50:08.199Z,97203.17
2023-01-28T20:52:37.535Z,97200.98
2023-01-28T20:55:07.067Z,97203.17
2023-01-28T20:57:37.717Z,97198.26
2023-01-28T21:00:07.481Z,97200.98
2023-01-28T21:02:40.909Z,97198.55
2023-01-28T21:05:10.572Z,97188.70
2023-01-28T21:07:39.748Z,97184.61
2023-01-28T21:10:09.120Z,97184.34
2023-01-28T21:12:38.778Z,97192.53
2023-01-28T21:15:09.073Z,97191.17
2023-01-28T21:17:38.606Z,97188.15
2023-01-28T21:20:08.856Z,97176.70
2023-01-28T21:22:38.345Z,97172.32
2023-01-28T21:25:08.156Z,97181.06
2023-01-28T21:27:37.710Z,97181.61
2023-01-28T21:30:07.814Z,97166.30
2023-01-28T21:32:37.157Z,97168.78
2023-01-28T21:35:06.708Z,97156.23
2023-01-28T21:37:36.342Z,97157.59
2023-01-28T21:40:06.148Z,97149.95
2023-01-28T21:42:36.470Z,97143.13
2023-01-28T21:45:06.346Z,97136.86
2023-01-28T21:47:35.699Z,97139.58
2023-01-28T21:50:06.298Z,97154.30
2023-01-28T21:52:35.992Z,97154.30
2023-01-28T21:55:05.760Z,97160.31
2023-01-28T21:57:34.953Z,97151.02
2023-01-28T22:00:04.573Z,97145.86
2023-01-28T22:02:34.211Z,97145.86
2023-01-28T22:05:03.648Z,97145.05
2023-01-28T22:07:33.157Z,97151.58
2023-01-28T22:10:05.008Z,97152.94
2023-01-28T22:12:34.688Z,97152.94
2023-01-28T22:15:04.010Z,97158.40
2023-01-28T22:17:33.600Z,97160.88
2023-01-28T22:20:03.221Z,97163.60
2023-01-28T22:25:21.711Z,97168.51
2023-01-28T22:27:51.093Z,97170.69
2023-01-28T22:30:21.318Z,97173.67
2023-01-28T22:32:51.008Z,97176.41
2023-01-28T22:35:20.234Z,97177.52
2023-01-28T22:37:49.725Z,97171.23
2023-01-28T22:40:19.229Z,97165.23
2023-01-28T22:42:48.691Z,97173.16
2023-01-28T22:45:17.789Z,97172.31
2023-01-28T22:47:47.195Z,97169.88
2023-01-28T22:50:16.707Z,97177.52
2023-01-28T22:52:46.051Z,97176.97
2023-01-28T22:55:35.770Z,97178.33
2023-01-28T22:58:09.131Z,97181.32
2023-01-28T23:00:39.811Z,97177.23
2023-01-28T23:03:10.542Z,97178.33
2023-01-28T23:05:39.927Z,97179.44
2023-01-28T23:08:12.316Z,97193.08
2023-01-28T23:10:42.006Z,97193.90
2023-01-28T23:13:11.420Z,97198.80
2023-01-28T23:15:58.403Z,97194.97
2023-01-28T23:18:44.905Z,97185.97
2023-01-28T23:21:36.448Z,97184.89
2023-01-28T23:24:22.216Z,97190.61
2023-01-28T23:26:52.743Z,97196.07
2023-01-28T23:29:23.595Z,97196.88
2023-01-28T23:31:54.933Z,97196.36
2023-01-28T23:34:24.639Z,97202.89
2023-01-28T23:36:53.846Z,97199.61
2023-01-28T23:39:23.547Z,97200.98
2023-01-28T23:41:53.014Z,97201.53
2023-01-28T23:44:26.276Z,97202.08
2023-01-28T23:46:57.327Z,97208.91
2023-01-28T23:49:27.056Z,97215.46
2023-01-28T23:51:57.315Z,97207.27
2023-01-28T23:54:27.035Z,97220.92
2023-01-28T23:56:57.077Z,97230.73
2023-01-28T23:59:27.027Z,97233.45
